sensor_id;sensor_type;location;lat;lon;timestamp;P1;durP1;ratioP1;P2;durP2;ratioP2
16624;SDS011;8426;48.496;9.098;2022-08-23T00:00:42;4.57;;;1.80;;
16624;SDS011;8426;48.496;9.098;2022-08-23T00:05:49;5.07;;;1.77;;
16624;SDS011;8426;48.496;9.098;2022-08-23T00:10:53;3.10;;;1.65;;
16624;SDS011;8426;48.496;9.098;2022-08-23T00:15:57;4.22;;;2.08;;
16624;SDS011;8426;48.496;9.098;2022-08-23T00:21:02;3.85;;;1.80;;
16624;SDS011;8426;48.496;9.098;2022-08-23T00:26:05;7.93;;;2.35;;
16624;SDS011;8426;48.496;9.098;2022-08-23T00:31:09;4.30;;;2.20;;
16624;SDS011;8426;48.496;9.098;2022-08-23T00:36:13;7.10;;;2.58;;
16624;SDS011;8426;48.496;9.098;2022-08-23T00:41:19;4.75;;;2.20;;
16624;SDS011;8426;48.496;9.098;2022-08-23T00:46:29;5.68;;;3.22;;
16624;SDS011;8426;48.496;9.098;2022-08-23T00:52:03;5.18;;;2.60;;
16624;SDS011;8426;48.496;9.098;2022-08-23T00:57:11;5.75;;;2.70;;
16624;SDS011;8426;48.496;9.098;2022-08-23T01:02:42;3.70;;;2.30;;
16624;SDS011;8426;48.496;9.098;2022-08-23T01:07:51;10.27;;;2.67;;
16624;SDS011;8426;48.496;9.098;2022-08-23T01:12:58;3.80;;;2.70;;
16624;SDS011;8426;48.496;9.098;2022-08-23T01:18:10;5.32;;;3.30;;
16624;SDS011;8426;48.496;9.098;2022-08-23T01:23:21;6.82;;;3.00;;
16624;SDS011;8426;48.496;9.098;2022-08-23T01:28:29;4.65;;;2.88;;
16624;SDS011;8426;48.496;9.098;2022-08-23T01:33:34;4.35;;;2.97;;
16624;SDS011;8426;48.496;9.098;2022-08-23T01:38:40;6.18;;;3.00;;
16624;SDS011;8426;48.496;9.098;2022-08-23T01:43:44;4.63;;;2.85;;
16624;SDS011;8426;48.496;9.098;2022-08-23T01:48:52;6.68;;;3.22;;
16624;SDS011;8426;48.496;9.098;2022-08-23T01:53:57;4.20;;;2.50;;
16624;SDS011;8426;48.496;9.098;2022-08-23T01:59:01;5.57;;;3.35;;
16624;SDS011;8426;48.496;9.098;2022-08-23T02:04:05;7.05;;;3.25;;
16624;SDS011;8426;48.496;9.098;2022-08-23T02:09:10;6.10;;;3.90;;
16624;SDS011;8426;48.496;9.098;2022-08-23T02:14:25;6.38;;;3.75;;
16624;SDS011;8426;48.496;9.098;2022-08-23T02:19:28;6.22;;;3.58;;
16624;SDS011;8426;48.496;9.098;2022-08-23T02:24:33;8.80;;;4.10;;
16624;SDS011;8426;48.496;9.098;2022-08-23T02:29:40;4.35;;;3.08;;
16624;SDS011;8426;48.496;9.098;2022-08-23T02:34:46;5.13;;;3.33;;
16624;SDS011;8426;48.496;9.098;2022-08-23T02:40:08;4.63;;;3.28;;
16624;SDS011;8426;48.496;9.098;2022-08-23T02:45:12;5.80;;;3.67;;
16624;SDS011;8426;48.496;9.098;2022-08-23T02:50:19;7.10;;;3.83;;
16624;SDS011;8426;48.496;9.098;2022-08-23T02:55:23;9.82;;;4.03;;
16624;SDS011;8426;48.496;9.098;2022-08-23T03:00:27;6.40;;;3.50;;
16624;SDS011;8426;48.496;9.098;2022-08-23T03:05:30;8.07;;;3.78;;
16624;SDS011;8426;48.496;9.098;2022-08-23T03:10:35;4.28;;;3.30;;
16624;SDS011;8426;48.496;9.098;2022-08-23T03:15:41;4.60;;;2.95;;
16624;SDS011;8426;48.496;9.098;2022-08-23T03:20:44;5.05;;;3.47;;
16624;SDS011;8426;48.496;9.098;2022-08-23T03:25:50;5.60;;;3.13;;
16624;SDS011;8426;48.496;9.098;2022-08-23T03:30:54;9.35;;;4.18;;
16624;SDS011;8426;48.496;9.098;2022-08-23T03:35:58;7.75;;;4.00;;
16624;SDS011;8426;48.496;9.098;2022-08-23T03:41:03;7.20;;;3.30;;
16624;SDS011;8426;48.496;9.098;2022-08-23T03:46:07;5.38;;;3.70;;
16624;SDS011;8426;48.496;9.098;2022-08-23T03:51:23;4.85;;;3.03;;
16624;SDS011;8426;48.496;9.098;2022-08-23T03:56:29;5.38;;;2.55;;
16624;SDS011;8426;48.496;9.098;2022-08-23T04:01:35;5.72;;;3.30;;
16624;SDS011;8426;48.496;9.098;2022-08-23T04:06:38;4.80;;;2.80;;
16624;SDS011;8426;48.496;9.098;2022-08-23T04:11:43;5.47;;;2.90;;
16624;SDS011;8426;48.496;9.098;2022-08-23T04:16:47;5.10;;;3.03;;
16624;SDS011;8426;48.496;9.098;2022-08-23T04:21:50;3.53;;;2.85;;
16624;SDS011;8426;48.496;9.098;2022-08-23T04:26:55;5.82;;;2.78;;
16624;SDS011;8426;48.496;9.098;2022-08-23T04:31:59;3.65;;;2.80;;
16624;SDS011;8426;48.496;9.098;2022-08-23T04:37:05;6.80;;;3.55;;
16624;SDS011;8426;48.496;9.098;2022-08-23T04:42:11;7.28;;;4.07;;
16624;SDS011;8426;48.496;9.098;2022-08-23T04:47:23;7.10;;;3.72;;
16624;SDS011;8426;48.496;9.098;2022-08-23T04:52:26;6.63;;;4.32;;
16624;SDS011;8426;48.496;9.098;2022-08-23T04:57:31;5.70;;;4.10;;
16624;SDS011;8426;48.496;9.098;2022-08-23T05:02:34;7.70;;;4.45;;
16624;SDS011;8426;48.496;9.098;2022-08-23T05:07:37;8.15;;;4.93;;
16624;SDS011;8426;48.496;9.098;2022-08-23T05:12:44;6.45;;;3.72;;
16624;SDS011;8426;48.496;9.098;2022-08-23T05:17:49;11.77;;;4.72;;
16624;SDS011;8426;48.496;9.098;2022-08-23T05:22:57;6.85;;;4.22;;
16624;SDS011;8426;48.496;9.098;2022-08-23T05:28:04;7.50;;;4.82;;
16624;SDS011;8426;48.496;9.098;2022-08-23T05:33:16;7.28;;;4.50;;
16624;SDS011;8426;48.496;9.098;2022-08-23T05:38:24;5.85;;;4.70;;
16624;SDS011;8426;48.496;9.098;2022-08-23T05:43:34;5.75;;;3.70;;
16624;SDS011;8426;48.496;9.098;2022-08-23T05:48:40;7.38;;;4.32;;
16624;SDS011;8426;48.496;9.098;2022-08-23T05:53:50;7.00;;;4.47;;
16624;SDS011;8426;48.496;9.098;2022-08-23T05:58:57;5.63;;;3.60;;
16624;SDS011;8426;48.496;9.098;2022-08-23T06:04:05;7.65;;;3.97;;
16624;SDS011;8426;48.496;9.098;2022-08-23T06:09:13;8.07;;;3.80;;
16624;SDS011;8426;48.496;9.098;2022-08-23T06:14:20;7.22;;;4.63;;
16624;SDS011;8426;48.496;9.098;2022-08-23T06:19:24;6.97;;;4.32;;
16624;SDS011;8426;48.496;9.098;2022-08-23T06:24:27;6.45;;;3.58;;
16624;SDS011;8426;48.496;9.098;2022-08-23T06:29:32;6.03;;;3.25;;
16624;SDS011;8426;48.496;9.098;2022-08-23T06:34:36;3.22;;;2.25;;
16624;SDS011;8426;48.496;9.098;2022-08-23T06:39:41;3.92;;;2.42;;
16624;SDS011;8426;48.496;9.098;2022-08-23T06:44:46;8.13;;;2.97;;
16624;SDS011;8426;48.496;9.098;2022-08-23T06:49:51;4.63;;;2.55;;
16624;SDS011;8426;48.496;9.098;2022-08-23T06:54:58;4.07;;;2.13;;
16624;SDS011;8426;48.496;9.098;2022-08-23T07:00:04;3.78;;;2.22;;
16624;SDS011;8426;48.496;9.098;2022-08-23T07:05:11;3.00;;;2.20;;
16624;SDS011;8426;48.496;9.098;2022-08-23T07:10:14;3.33;;;1.90;;
16624;SDS011;8426;48.496;9.098;2022-08-23T07:15:19;2.63;;;2.03;;
16624;SDS011;8426;48.496;9.098;2022-08-23T07:20:22;3.05;;;1.73;;
16624;SDS011;8426;48.496;9.098;2022-08-23T07:25:28;4.18;;;2.00;;
16624;SDS011;8426;48.496;9.098;2022-08-23T07:30:42;3.13;;;1.90;;
16624;SDS011;8426;48.496;9.098;2022-08-23T07:35:46;3.10;;;1.73;;
16624;SDS011;8426;48.496;9.098;2022-08-23T07:40:50;3.50;;;1.63;;
16624;SDS011;8426;48.496;9.098;2022-08-23T07:45:55;2.75;;;1.38;;
16624;SDS011;8426;48.496;9.098;2022-08-23T07:51:00;3.38;;;1.52;;
16624;SDS011;8426;48.496;9.098;2022-08-23T07:56:07;2.53;;;1.52;;
16624;SDS011;8426;48.496;9.098;2022-08-23T08:01:15;2.53;;;1.35;;
16624;SDS011;8426;48.496;9.098;2022-08-23T08:06:20;4.55;;;1.60;;
16624;SDS011;8426;48.496;9.098;2022-08-23T08:11:28;3.85;;;1.50;;
16624;SDS011;8426;48.496;9.098;2022-08-23T08:16:38;3.60;;;1.88;;
16624;SDS011;8426;48.496;9.098;2022-08-23T08:21:43;5.13;;;1.40;;
16624;SDS011;8426;48.496;9.098;2022-08-23T08:26:47;5.75;;;1.52;;
16624;SDS011;8426;48.496;9.098;2022-08-23T08:31:52;2.50;;;1.27;;
16624;SDS011;8426;48.496;9.098;2022-08-23T08:36:55;3.03;;;1.35;;
16624;SDS011;8426;48.496;9.098;2022-08-23T08:42:11;2.20;;;1.45;;
16624;SDS011;8426;48.496;9.098;2022-08-23T08:47:37;3.17;;;1.48;;
16624;SDS011;8426;48.496;9.098;2022-08-23T08:52:46;2.30;;;1.25;;
16624;SDS011;8426;48.496;9.098;2022-08-23T08:57:53;3.38;;;1.40;;
16624;SDS011;8426;48.496;9.098;2022-08-23T09:02:59;4.95;;;1.50;;
16624;SDS011;8426;48.496;9.098;2022-08-23T09:08:10;3.67;;;1.65;;
16624;SDS011;8426;48.496;9.098;2022-08-23T09:13:29;3.65;;;1.40;;
16624;SDS011;8426;48.496;9.098;2022-08-23T09:18:48;2.75;;;1.50;;
16624;SDS011;8426;48.496;9.098;2022-08-23T09:23:51;5.28;;;1.30;;
16624;SDS011;8426;48.496;9.098;2022-08-23T09:29:02;4.80;;;1.30;;
16624;SDS011;8426;48.496;9.098;2022-08-23T09:34:17;4.65;;;1.25;;
16624;SDS011;8426;48.496;9.098;2022-08-23T09:39:23;3.42;;;1.40;;
16624;SDS011;8426;48.496;9.098;2022-08-23T09:44:33;6.55;;;1.33;;
16624;SDS011;8426;48.496;9.098;2022-08-23T09:49:41;2.50;;;1.33;;
16624;SDS011;8426;48.496;9.098;2022-08-23T09:54:55;4.70;;;1.30;;
16624;SDS011;8426;48.496;9.098;2022-08-23T10:00:01;5.25;;;1.20;;
16624;SDS011;8426;48.496;9.098;2022-08-23T10:05:29;4.15;;;1.35;;
16624;SDS011;8426;48.496;9.098;2022-08-23T10:10:44;1.88;;;1.20;;
16624;SDS011;8426;48.496;9.098;2022-08-23T10:15:56;3.53;;;1.30;;
16624;SDS011;8426;48.496;9.098;2022-08-23T10:21:10;4.30;;;1.60;;
16624;SDS011;8426;48.496;9.098;2022-08-23T10:26:26;5.38;;;1.20;;
16624;SDS011;8426;48.496;9.098;2022-08-23T10:31:44;4.70;;;1.50;;
16624;SDS011;8426;48.496;9.098;2022-08-23T10:37:09;4.30;;;1.30;;
16624;SDS011;8426;48.496;9.098;2022-08-23T10:42:35;4.85;;;2.22;;
16624;SDS011;8426;48.496;9.098;2022-08-23T10:47:49;3.35;;;1.38;;
16624;SDS011;8426;48.496;9.098;2022-08-23T10:53:06;2.25;;;1.20;;
16624;SDS011;8426;48.496;9.098;2022-08-23T10:58:14;4.32;;;1.70;;
16624;SDS011;8426;48.496;9.098;2022-08-23T11:03:24;5.18;;;1.60;;
16624;SDS011;8426;48.496;9.098;2022-08-23T11:08:32;4.00;;;1.48;;
16624;SDS011;8426;48.496;9.098;2022-08-23T11:13:50;4.82;;;1.50;;
16624;SDS011;8426;48.496;9.098;2022-08-23T11:18:55;5.95;;;1.45;;
16624;SDS011;8426;48.496;9.098;2022-08-23T11:29:57;5.18;;;1.30;;
16624;SDS011;8426;48.496;9.098;2022-08-23T11:35:41;3.67;;;1.30;;
16624;SDS011;8426;48.496;9.098;2022-08-23T11:40:57;2.80;;;1.77;;
16624;SDS011;8426;48.496;9.098;2022-08-23T11:46:15;1.92;;;1.35;;
16624;SDS011;8426;48.496;9.098;2022-08-23T11:51:30;2.97;;;1.40;;
16624;SDS011;8426;48.496;9.098;2022-08-23T11:56:47;3.65;;;1.17;;
16624;SDS011;8426;48.496;9.098;2022-08-23T12:07:53;2.08;;;1.38;;
16624;SDS011;8426;48.496;9.098;2022-08-23T12:13:28;4.40;;;1.50;;
16624;SDS011;8426;48.496;9.098;2022-08-23T12:18:35;3.92;;;1.70;;
16624;SDS011;8426;48.496;9.098;2022-08-23T12:23:49;7.43;;;1.50;;
16624;SDS011;8426;48.496;9.098;2022-08-23T12:28:55;2.00;;;1.10;;
16624;SDS011;8426;48.496;9.098;2022-08-23T12:34:10;5.22;;;1.30;;
16624;SDS011;8426;48.496;9.098;2022-08-23T12:39:21;3.38;;;1.60;;
16624;SDS011;8426;48.496;9.098;2022-08-23T12:44:29;4.82;;;1.30;;
16624;SDS011;8426;48.496;9.098;2022-08-23T12:49:53;2.25;;;1.30;;
16624;SDS011;8426;48.496;9.098;2022-08-23T12:55:11;2.63;;;1.60;;
16624;SDS011;8426;48.496;9.098;2022-08-23T13:00:17;7.07;;;1.88;;
16624;SDS011;8426;48.496;9.098;2022-08-23T13:05:36;3.70;;;1.60;;
16624;SDS011;8426;48.496;9.098;2022-08-23T13:10:49;4.35;;;1.60;;
16624;SDS011;8426;48.496;9.098;2022-08-23T13:15:57;2.92;;;1.50;;
16624;SDS011;8426;48.496;9.098;2022-08-23T13:21:17;4.05;;;1.45;;
16624;SDS011;8426;48.496;9.098;2022-08-23T13:26:43;7.45;;;1.77;;
16624;SDS011;8426;48.496;9.098;2022-08-23T13:31:51;3.13;;;1.20;;
16624;SDS011;8426;48.496;9.098;2022-08-23T13:37:05;12.45;;;1.60;;
16624;SDS011;8426;48.496;9.098;2022-08-23T13:42:30;2.17;;;1.45;;
16624;SDS011;8426;48.496;9.098;2022-08-23T13:47:37;3.03;;;1.35;;
16624;SDS011;8426;48.496;9.098;2022-08-23T13:52:50;2.40;;;1.50;;
16624;SDS011;8426;48.496;9.098;2022-08-23T13:58:23;4.03;;;1.17;;
16624;SDS011;8426;48.496;9.098;2022-08-23T14:03:29;3.38;;;1.30;;
16624;SDS011;8426;48.496;9.098;2022-08-23T14:08:33;3.72;;;1.42;;
16624;SDS011;8426;48.496;9.098;2022-08-23T14:13:38;2.90;;;1.35;;
16624;SDS011;8426;48.496;9.098;2022-08-23T14:18:41;2.92;;;1.35;;
16624;SDS011;8426;48.496;9.098;2022-08-23T14:24:07;3.97;;;1.52;;
16624;SDS011;8426;48.496;9.098;2022-08-23T14:29:12;2.30;;;1.50;;
16624;SDS011;8426;48.496;9.098;2022-08-23T14:34:15;5.22;;;1.60;;
16624;SDS011;8426;48.496;9.098;2022-08-23T14:39:19;3.05;;;1.30;;
16624;SDS011;8426;48.496;9.098;2022-08-23T14:44:24;4.47;;;1.23;;
16624;SDS011;8426;48.496;9.098;2022-08-23T14:49:36;4.35;;;1.52;;
16624;SDS011;8426;48.496;9.098;2022-08-23T14:54:45;1.50;;;1.15;;
16624;SDS011;8426;48.496;9.098;2022-08-23T14:59:51;3.80;;;1.45;;
16624;SDS011;8426;48.496;9.098;2022-08-23T15:04:54;5.90;;;1.20;;
16624;SDS011;8426;48.496;9.098;2022-08-23T15:09:58;3.47;;;1.40;;
16624;SDS011;8426;48.496;9.098;2022-08-23T15:15:03;2.25;;;1.38;;
16624;SDS011;8426;48.496;9.098;2022-08-23T15:20:11;9.68;;;1.55;;
16624;SDS011;8426;48.496;9.098;2022-08-23T15:25:15;3.58;;;1.27;;
16624;SDS011;8426;48.496;9.098;2022-08-23T15:30:20;3.60;;;1.40;;
16624;SDS011;8426;48.496;9.098;2022-08-23T15:35:24;4.13;;;1.58;;
16624;SDS011;8426;48.496;9.098;2022-08-23T15:40:29;4.30;;;1.50;;
16624;SDS011;8426;48.496;9.098;2022-08-23T15:45:34;2.33;;;1.50;;
16624;SDS011;8426;48.496;9.098;2022-08-23T15:50:38;2.15;;;1.50;;
16624;SDS011;8426;48.496;9.098;2022-08-23T15:55:46;2.80;;;1.40;;
16624;SDS011;8426;48.496;9.098;2022-08-23T16:00:52;3.90;;;2.00;;
16624;SDS011;8426;48.496;9.098;2022-08-23T16:05:56;3.85;;;1.50;;
16624;SDS011;8426;48.496;9.098;2022-08-23T16:11:00;2.67;;;1.60;;
16624;SDS011;8426;48.496;9.098;2022-08-23T16:16:12;3.58;;;2.33;;
16624;SDS011;8426;48.496;9.098;2022-08-23T16:21:19;2.85;;;1.42;;
16624;SDS011;8426;48.496;9.098;2022-08-23T16:26:26;3.25;;;1.40;;
16624;SDS011;8426;48.496;9.098;2022-08-23T16:31:37;2.63;;;1.58;;
16624;SDS011;8426;48.496;9.098;2022-08-23T16:36:41;3.17;;;1.52;;
16624;SDS011;8426;48.496;9.098;2022-08-23T16:41:46;4.03;;;1.27;;
16624;SDS011;8426;48.496;9.098;2022-08-23T16:46:51;4.53;;;1.50;;
16624;SDS011;8426;48.496;9.098;2022-08-23T16:51:55;1.85;;;1.33;;
16624;SDS011;8426;48.496;9.098;2022-08-23T16:56:58;6.65;;;1.50;;
16624;SDS011;8426;48.496;9.098;2022-08-23T17:02:05;2.22;;;1.50;;
16624;SDS011;8426;48.496;9.098;2022-08-23T17:07:33;2.78;;;1.60;;
16624;SDS011;8426;48.496;9.098;2022-08-23T17:12:40;3.00;;;1.40;;
16624;SDS011;8426;48.496;9.098;2022-08-23T17:17:49;3.92;;;1.77;;
16624;SDS011;8426;48.496;9.098;2022-08-23T17:22:52;7.22;;;1.88;;
16624;SDS011;8426;48.496;9.098;2022-08-23T17:27:56;2.90;;;1.90;;
16624;SDS011;8426;48.496;9.098;2022-08-23T17:33:03;2.15;;;1.60;;
16624;SDS011;8426;48.496;9.098;2022-08-23T17:38:07;1.77;;;1.48;;
16624;SDS011;8426;48.496;9.098;2022-08-23T17:43:10;3.08;;;1.70;;
16624;SDS011;8426;48.496;9.098;2022-08-23T17:48:16;4.80;;;1.70;;
16624;SDS011;8426;48.496;9.098;2022-08-23T17:53:20;2.83;;;1.60;;
16624;SDS011;8426;48.496;9.098;2022-08-23T17:58:24;2.42;;;1.40;;
16624;SDS011;8426;48.496;9.098;2022-08-23T18:03:29;2.75;;;1.67;;
16624;SDS011;8426;48.496;9.098;2022-08-23T18:08:32;4.45;;;1.42;;
16624;SDS011;8426;48.496;9.098;2022-08-23T18:13:36;3.35;;;1.30;;
16624;SDS011;8426;48.496;9.098;2022-08-23T18:18:41;1.23;;;1.13;;
16624;SDS011;8426;48.496;9.098;2022-08-23T18:23:44;3.95;;;1.55;;
16624;SDS011;8426;48.496;9.098;2022-08-23T18:28:48;3.08;;;1.30;;
16624;SDS011;8426;48.496;9.098;2022-08-23T18:33:52;5.60;;;1.60;;
16624;SDS011;8426;48.496;9.098;2022-08-23T18:39:01;2.53;;;1.13;;
16624;SDS011;8426;48.496;9.098;2022-08-23T18:44:05;3.83;;;1.30;;
16624;SDS011;8426;48.496;9.098;2022-08-23T18:49:10;4.55;;;1.00;;
16624;SDS011;8426;48.496;9.098;2022-08-23T18:54:15;2.92;;;1.30;;
16624;SDS011;8426;48.496;9.098;2022-08-23T18:59:18;2.70;;;1.20;;
16624;SDS011;8426;48.496;9.098;2022-08-23T19:04:23;4.93;;;1.40;;
16624;SDS011;8426;48.496;9.098;2022-08-23T19:09:26;3.08;;;1.15;;
16624;SDS011;8426;48.496;9.098;2022-08-23T19:14:30;3.95;;;1.58;;
16624;SDS011;8426;48.496;9.098;2022-08-23T19:19:37;2.17;;;1.40;;
16624;SDS011;8426;48.496;9.098;2022-08-23T19:42:07;5.53;;;1.38;;
16624;SDS011;8426;48.496;9.098;2022-08-23T19:47:57;2.85;;;1.17;;
16624;SDS011;8426;48.496;9.098;2022-08-23T19:53:15;3.67;;;1.38;;
16624;SDS011;8426;48.496;9.098;2022-08-23T20:03:56;3.65;;;1.88;;
16624;SDS011;8426;48.496;9.098;2022-08-23T20:32:19;2.40;;;1.23;;
16624;SDS011;8426;48.496;9.098;2022-08-23T20:37:37;1.30;;;1.20;;
16624;SDS011;8426;48.496;9.098;2022-08-23T20:43:12;1.83;;;1.25;;
16624;SDS011;8426;48.496;9.098;2022-08-23T20:48:35;3.45;;;1.60;;
16624;SDS011;8426;48.496;9.098;2022-08-23T20:59:50;3.20;;;1.30;;
16624;SDS011;8426;48.496;9.098;2022-08-23T21:10:21;3.90;;;1.63;;
16624;SDS011;8426;48.496;9.098;2022-08-23T21:20:57;2.35;;;1.63;;
16624;SDS011;8426;48.496;9.098;2022-08-23T21:26:28;8.50;;;1.75;;
16624;SDS011;8426;48.496;9.098;2022-08-23T21:32:17;3.05;;;1.63;;
16624;SDS011;8426;48.496;9.098;2022-08-23T21:43:42;4.45;;;1.80;;
16624;SDS011;8426;48.496;9.098;2022-08-23T21:49:08;2.50;;;1.42;;
16624;SDS011;8426;48.496;9.098;2022-08-23T21:55:15;2.50;;;1.73;;
16624;SDS011;8426;48.496;9.098;2022-08-23T22:00:43;5.03;;;1.85;;
16624;SDS011;8426;48.496;9.098;2022-08-23T22:12:12;3.58;;;1.75;;
16624;SDS011;8426;48.496;9.098;2022-08-23T22:17:41;2.38;;;1.55;;
16624;SDS011;8426;48.496;9.098;2022-08-23T22:23:34;3.70;;;2.00;;
16624;SDS011;8426;48.496;9.098;2022-08-23T22:28:54;4.55;;;2.17;;
16624;SDS011;8426;48.496;9.098;2022-08-23T22:39:29;4.47;;;1.77;;
16624;SDS011;8426;48.496;9.098;2022-08-23T22:45:09;3.67;;;1.83;;
16624;SDS011;8426;48.496;9.098;2022-08-23T22:50:15;5.60;;;2.25;;
16624;SDS011;8426;48.496;9.098;2022-08-23T22:55:50;4.97;;;2.13;;
16624;SDS011;8426;48.496;9.098;2022-08-23T23:00:53;4.97;;;2.42;;
16624;SDS011;8426;48.496;9.098;2022-08-23T23:05:58;4.22;;;2.20;;
16624;SDS011;8426;48.496;9.098;2022-08-23T23:13:52;4.55;;;2.08;;
16624;SDS011;8426;48.496;9.098;2022-08-23T23:18:56;2.75;;;1.92;;
16624;SDS011;8426;48.496;9.098;2022-08-23T23:24:17;7.20;;;2.17;;
16624;SDS011;8426;48.496;9.098;2022-08-23T23:29:24;3.08;;;2.00;;
16624;SDS011;8426;48.496;9.098;2022-08-23T23:34:28;5.32;;;2.53;;
16624;SDS011;8426;48.496;9.098;2022-08-23T23:51:17;6.25;;;2.53;;
16624;SDS011;8426;48.496;9.098;2022-08-23T23:56:23;4.78;;;2.42;;
